createdAt,value
2023-04-04T00:00:33.552Z,6.79
2023-04-04T00:03:00.226Z,6.92
2023-04-04T00:05:26.818Z,6.75
2023-04-04T00:07:53.390Z,6.88
2023-04-04T00:10:19.978Z,6.69
2023-04-04T00:12:46.666Z,6.57
2023-04-04T00:15:13.358Z,6.62
2023-04-04T00:17:39.973Z,6.56
2023-04-04T00:20:06.546Z,6.45
2023-04-04T00:22:33.149Z,6.57
2023-04-04T00:24:59.712Z,6.51
2023-04-04T00:27:26.532Z,6.41
2023-04-04T00:29:53.073Z,6.39
2023-04-04T00:32:19.694Z,6.48
2023-04-04T00:34:46.279Z,6.48
2023-04-04T00:37:13.186Z,6.28
2023-04-04T00:39:40.131Z,6.40
2023-04-04T00:42:06.682Z,6.52
2023-04-04T00:44:35.304Z,6.30
2023-04-04T00:47:01.866Z,6.33
2023-04-04T00:49:28.483Z,6.15
2023-04-04T00:51:55.030Z,5.81
2023-04-04T00:54:22.671Z,5.96
2023-04-04T00:56:49.257Z,6.13
2023-04-04T00:59:15.875Z,6.10
2023-04-04T01:01:42.619Z,5.80
2023-04-04T01:04:09.322Z,5.86
2023-04-04T01:06:35.917Z,5.99
2023-04-04T01:09:02.475Z,5.88
2023-04-04T01:11:29.068Z,5.86
2023-04-04T01:13:55.602Z,5.65
2023-04-04T01:16:22.254Z,5.61
2023-04-04T01:18:48.867Z,5.53
2023-04-04T01:21:15.437Z,5.33
2023-04-04T01:23:42.015Z,5.41
2023-04-04T01:26:08.603Z,5.43
2023-04-04T01:28:36.583Z,5.44
2023-04-04T01:31:03.306Z,5.49
2023-04-04T01:33:29.874Z,5.34
2023-04-04T01:35:56.488Z,5.32
2023-04-04T01:38:23.034Z,5.36
2023-04-04T01:40:49.608Z,5.34
2023-04-04T01:43:16.504Z,5.31
2023-04-04T01:45:43.145Z,5.21
2023-04-04T01:48:09.747Z,5.21
2023-04-04T01:50:36.330Z,5.25
2023-04-04T01:53:02.907Z,5.18
2023-04-04T01:55:29.497Z,4.94
2023-04-04T01:57:56.032Z,5.08
2023-04-04T02:00:22.598Z,5.11
2023-04-04T02:02:49.176Z,5.25
2023-04-04T02:05:15.812Z,5.10
2023-04-04T02:07:42.389Z,5.05
2023-04-04T02:10:08.978Z,5.05
2023-04-04T02:12:35.540Z,5.21
2023-04-04T02:15:02.137Z,5.16
2023-04-04T02:17:28.780Z,5.09
2023-04-04T02:19:55.438Z,4.95
2023-04-04T02:22:21.992Z,5.02
2023-04-04T02:24:48.615Z,4.90
2023-04-04T02:27:15.164Z,4.96
2023-04-04T02:29:42.270Z,5.03
2023-04-04T02:32:08.846Z,4.90
2023-04-04T02:34:35.454Z,4.85
2023-04-04T02:37:02.231Z,4.99
2023-04-04T02:39:28.770Z,4.72
2023-04-04T02:41:55.345Z,4.81
2023-04-04T02:44:21.881Z,4.69
2023-04-04T02:46:48.482Z,4.57
2023-04-04T02:49:15.040Z,4.44
2023-04-04T02:51:41.692Z,4.46
2023-04-04T02:54:08.243Z,4.41
2023-04-04T02:56:34.813Z,4.59
2023-04-04T02:59:01.453Z,4.54
2023-04-04T03:01:28.078Z,4.61
2023-04-04T03:03:54.928Z,4.47
2023-04-04T03:06:21.642Z,4.31
2023-04-04T03:08:48.231Z,3.95
2023-04-04T03:11:14.858Z,3.94
2023-04-04T03:13:41.418Z,4.21
2023-04-04T03:16:08.037Z,4.64
2023-04-04T03:18:34.665Z,4.38
2023-04-04T03:21:01.264Z,4.50
2023-04-04T03:23:27.808Z,4.83
2023-04-04T03:25:54.533Z,4.44
2023-04-04T03:28:21.183Z,4.64
2023-04-04T03:30:48.022Z,4.79
2023-04-04T03:33:14.565Z,4.94
2023-04-04T03:35:41.243Z,4.76
2023-04-04T03:38:07.897Z,4.94
2023-04-04T03:40:34.442Z,4.93
2023-04-04T03:43:01.036Z,4.98
2023-04-04T03:45:27.599Z,5.17
2023-04-04T03:47:54.270Z,4.94
2023-04-04T03:50:20.936Z,5.22
2023-04-04T03:52:47.496Z,5.25
2023-04-04T03:55:14.087Z,5.22
2023-04-04T03:57:40.651Z,5.24
2023-04-04T04:00:07.610Z,5.28
2023-04-04T04:02:34.211Z,5.45
2023-04-04T04:05:00.783Z,5.41
2023-04-04T04:07:27.419Z,5.14
2023-04-04T04:09:53.971Z,5.08
2023-04-04T04:12:20.541Z,5.21
2023-04-04T04:14:47.122Z,5.24
2023-04-04T04:17:13.700Z,5.10
2023-04-04T04:19:40.589Z,4.58
2023-04-04T04:22:07.130Z,4.88
2023-04-04T04:24:33.701Z,5.17
2023-04-04T04:27:00.298Z,5.53
2023-04-04T04:29:27.353Z,5.42
2023-04-04T04:31:54.739Z,5.58
2023-04-04T04:34:21.479Z,5.17
2023-04-04T04:36:48.054Z,4.97
2023-04-04T04:39:14.621Z,5.24
2023-04-04T04:41:41.247Z,5.31
2023-04-04T04:44:07.839Z,5.34
2023-04-04T04:46:34.396Z,5.28
2023-04-04T04:49:01.020Z,5.23
2023-04-04T04:51:27.615Z,5.21
2023-04-04T04:53:54.163Z,5.27
2023-04-04T04:56:20.695Z,5.34
2023-04-04T04:58:47.297Z,5.38
2023-04-04T05:01:14.002Z,5.44
2023-04-04T05:03:41.351Z,5.40
2023-04-04T05:06:07.937Z,5.61
2023-04-04T05:08:34.513Z,5.58
2023-04-04T05:11:02.154Z,5.30
2023-04-04T05:13:29.852Z,5.53
2023-04-04T05:15:56.417Z,5.57
2023-04-04T05:18:23.002Z,5.65
2023-04-04T05:20:49.629Z,5.82
2023-04-04T05:23:16.204Z,5.94
2023-04-04T05:25:43.071Z,6.21
2023-04-04T05:28:16.946Z,6.03
2023-04-04T05:30:43.607Z,5.94
2023-04-04T05:33:10.234Z,5.97
2023-04-04T05:35:36.911Z,6.20
2023-04-04T05:38:03.541Z,6.52
2023-04-04T05:40:30.105Z,6.69
2023-04-04T05:42:56.748Z,6.80
2023-04-04T05:45:23.296Z,6.92
2023-04-04T05:47:49.905Z,6.85
2023-04-04T05:50:16.513Z,6.92
2023-04-04T05:52:43.254Z,7.31
2023-04-04T05:55:09.806Z,6.96
2023-04-04T05:57:36.392Z,6.97
2023-04-04T06:00:03.025Z,7.00
2023-04-04T06:02:29.696Z,7.16
2023-04-04T06:04:56.361Z,7.33
2023-04-04T06:07:22.938Z,7.61
2023-04-04T06:09:49.518Z,7.53
2023-04-04T06:12:16.156Z,7.42
2023-04-04T06:14:42.704Z,7.45
2023-04-04T06:17:09.288Z,7.61
2023-04-04T06:19:35.984Z,7.01
2023-04-04T06:22:02.805Z,7.22
2023-04-04T06:24:29.384Z,7.66
2023-04-04T06:26:56.231Z,7.59
2023-04-04T06:29:22.788Z,7.74
2023-04-04T06:31:49.402Z,7.92
2023-04-04T06:34:16.067Z,7.70
2023-04-04T06:36:42.610Z,7.74
2023-04-04T06:39:09.256Z,8.13
2023-04-04T06:41:35.833Z,7.83
2023-04-04T06:44:02.384Z,7.61
2023-04-04T06:46:28.990Z,8.11
2023-04-04T06:48:55.583Z,8.13
2023-04-04T06:51:22.171Z,8.32
2023-04-04T06:53:48.889Z,8.57
2023-04-04T06:56:15.516Z,8.19
2023-04-04T06:58:42.113Z,8.74
2023-04-04T07:01:08.734Z,8.07
2023-04-04T07:03:35.336Z,8.45
2023-04-04T07:06:01.956Z,8.68
2023-04-04T07:08:30.417Z,8.67
2023-04-04T07:11:00.901Z,8.10
2023-04-04T07:13:27.454Z,8.28
2023-04-04T07:15:54.017Z,8.57
2023-04-04T07:18:20.561Z,9.02
2023-04-04T07:20:47.136Z,9.28
2023-04-04T07:23:13.733Z,9.16
2023-04-04T07:25:40.717Z,9.43
2023-04-04T07:28:12.733Z,9.56
2023-04-04T07:30:40.461Z,9.46
2023-04-04T07:33:07.221Z,9.85
2023-04-04T07:35:33.816Z,10.14
2023-04-04T07:38:00.405Z,10.22
2023-04-04T07:40:27.353Z,9.81
2023-04-04T07:42:53.974Z,9.70
2023-04-04T07:45:20.600Z,9.46
2023-04-04T07:47:47.194Z,9.65
2023-04-04T07:50:13.808Z,9.94
2023-04-04T07:52:40.395Z,9.89
2023-04-04T07:55:06.930Z,9.53
2023-04-04T07:57:33.491Z,9.75
2023-04-04T08:00:00.081Z,10.24
2023-04-04T08:02:26.736Z,10.50
2023-04-04T08:04:53.338Z,9.77
2023-04-04T08:07:19.922Z,9.23
2023-04-04T08:09:46.490Z,10.01
2023-04-04T08:12:13.044Z,10.96
2023-04-04T08:14:43.731Z,10.68
2023-04-04T08:17:10.292Z,10.97
2023-04-04T08:19:36.845Z,11.08
2023-04-04T08:22:03.470Z,10.83
2023-04-04T08:24:30.065Z,10.73
2023-04-04T08:29:26.167Z,10.58
2023-04-04T08:31:52.846Z,11.09
2023-04-04T08:34:19.427Z,11.18
2023-04-04T08:36:45.982Z,11.53
2023-04-04T08:39:12.709Z,11.41
2023-04-04T08:41:39.611Z,10.54
2023-04-04T08:44:06.267Z,10.85
2023-04-04T08:46:32.908Z,11.07
2023-04-04T08:48:59.814Z,11.52
2023-04-04T08:51:26.349Z,11.81
2023-04-04T08:53:53.072Z,11.75
2023-04-04T08:56:19.696Z,11.70
2023-04-04T08:58:46.396Z,11.77
2023-04-04T09:01:13.032Z,11.48
2023-04-04T09:03:39.629Z,11.30
2023-04-04T09:06:06.585Z,11.42
2023-04-04T09:08:33.331Z,11.56
2023-04-04T09:10:59.988Z,11.42
2023-04-04T09:13:26.544Z,11.31
2023-04-04T09:15:53.147Z,11.43
2023-04-04T09:18:19.738Z,11.44
2023-04-04T09:20:46.285Z,11.45
2023-04-04T09:23:13.203Z,12.07
2023-04-04T09:25:39.822Z,11.70
2023-04-04T09:28:07.087Z,11.53
2023-04-04T09:30:33.627Z,12.16
2023-04-04T09:33:00.280Z,12.10
2023-04-04T09:35:26.853Z,12.23
2023-04-04T09:37:53.574Z,12.37
2023-04-04T09:40:20.624Z,12.71
2023-04-04T09:42:47.396Z,12.19
2023-04-04T09:45:17.122Z,12.62
2023-04-04T09:47:49.191Z,12.40
2023-04-04T09:50:15.753Z,12.28
2023-04-04T09:52:42.277Z,12.31
2023-04-04T09:55:08.864Z,12.16
2023-04-04T09:57:35.402Z,12.41
2023-04-04T10:00:01.962Z,12.32
2023-04-04T10:02:28.561Z,12.94
2023-04-04T10:05:05.184Z,13.35
2023-04-04T10:07:32.383Z,12.96
2023-04-04T10:09:58.992Z,13.09
2023-04-04T10:12:25.701Z,13.13
2023-04-04T10:14:52.274Z,13.18
2023-04-04T10:17:18.915Z,13.09
2023-04-04T10:19:45.457Z,13.27
2023-04-04T10:22:12.078Z,13.32
2023-04-04T10:24:38.665Z,13.63
2023-04-04T10:27:05.258Z,14.22
2023-04-04T10:29:31.803Z,14.26
2023-04-04T10:31:59.408Z,13.98
2023-04-04T10:34:26.276Z,14.12
2023-04-04T10:36:53.024Z,14.67
2023-04-04T10:39:19.617Z,14.90
2023-04-04T10:41:46.245Z,14.72
2023-04-04T10:44:12.904Z,14.20
2023-04-04T10:46:39.639Z,14.54
2023-04-04T10:49:06.232Z,14.03
2023-04-04T10:51:37.066Z,14.36
2023-04-04T10:54:08.797Z,14.62
2023-04-04T10:56:35.326Z,15.21
2023-04-04T10:59:02.006Z,14.43
2023-04-04T11:01:28.740Z,14.20
2023-04-04T11:03:55.334Z,14.10
2023-04-04T11:06:21.969Z,14.96
2023-04-04T11:08:48.542Z,14.13
2023-04-04T11:11:22.715Z,14.83
2023-04-04T11:13:49.616Z,15.25
2023-04-04T11:16:16.341Z,15.25
2023-04-04T11:18:42.986Z,15.05
2023-04-04T11:21:09.538Z,15.42
2023-04-04T11:23:36.184Z,15.20
2023-04-04T11:26:02.742Z,15.36
2023-04-04T11:28:29.304Z,15.42
2023-04-04T11:30:55.883Z,15.40
2023-04-04T11:33:22.519Z,15.25
2023-04-04T11:35:49.156Z,15.07
2023-04-04T11:38:15.750Z,15.88
2023-04-04T11:40:42.320Z,16.25
2023-04-04T11:43:08.921Z,15.78
2023-04-04T11:45:35.461Z,15.59
2023-04-04T11:48:02.231Z,15.49
2023-04-04T11:50:28.858Z,15.05
2023-04-04T11:52:55.413Z,15.88
2023-04-04T11:55:21.981Z,15.53
2023-04-04T11:57:48.539Z,15.89
2023-04-04T12:00:15.118Z,16.26
2023-04-04T12:02:42.484Z,16.65
2023-04-04T12:05:09.764Z,15.86
2023-04-04T12:07:36.536Z,16.09
2023-04-04T12:10:03.127Z,15.70
2023-04-04T12:12:29.680Z,16.30
2023-04-04T12:15:06.168Z,16.55
2023-04-04T12:17:41.403Z,15.86
2023-04-04T12:20:08.041Z,15.80
2023-04-04T12:22:34.624Z,16.15
2023-04-04T12:25:01.245Z,16.51
2023-04-04T12:27:27.814Z,16.14
2023-04-04T12:29:54.844Z,16.24
2023-04-04T12:32:21.402Z,16.43
2023-04-04T12:34:49.981Z,16.28
2023-04-04T12:37:17.556Z,16.13
2023-04-04T12:39:44.083Z,15.78
2023-04-04T12:42:10.646Z,16.25
2023-04-04T12:44:37.244Z,16.15
2023-04-04T12:47:03.850Z,16.34
2023-04-04T12:49:30.417Z,16.06
2023-04-04T12:51:57.010Z,15.79
2023-04-04T12:54:23.554Z,16.20
2023-04-04T12:56:50.202Z,16.77
2023-04-04T12:59:17.146Z,16.27
2023-04-04T13:01:43.782Z,16.77
2023-04-04T13:04:10.418Z,17.03
2023-04-04T13:06:37.154Z,16.94
2023-04-04T13:09:03.760Z,16.28
2023-04-04T13:11:30.349Z,16.51
2023-04-04T13:13:56.954Z,16.12
2023-04-04T13:16:23.516Z,16.01
2023-04-04T13:18:50.121Z,16.60
2023-04-04T13:21:16.716Z,17.07
2023-04-04T13:23:43.284Z,16.09
2023-04-04T13:26:09.845Z,16.09
2023-04-04T13:28:36.656Z,15.96
2023-04-04T13:31:03.287Z,16.73
2023-04-04T13:33:29.897Z,16.37
2023-04-04T13:35:56.440Z,16.02
2023-04-04T13:38:24.226Z,15.60
2023-04-04T13:40:52.742Z,15.56
2023-04-04T13:43:19.304Z,15.51
2023-04-04T13:45:46.165Z,15.37
2023-04-04T13:48:12.736Z,15.86
2023-04-04T13:50:39.394Z,16.20
2023-04-04T13:53:06.010Z,16.76
2023-04-04T13:55:32.624Z,16.98
2023-04-04T13:57:59.235Z,16.48
2023-04-04T14:00:25.912Z,16.05
2023-04-04T14:02:54.391Z,15.93
2023-04-04T14:05:22.482Z,15.29
2023-04-04T14:07:49.013Z,15.67
2023-04-04T14:10:15.590Z,15.38
2023-04-04T14:12:42.158Z,15.41
2023-04-04T14:15:08.710Z,15.99
2023-04-04T14:17:35.276Z,16.62
2023-04-04T14:20:01.932Z,17.04
2023-04-04T14:22:28.465Z,16.22
2023-04-04T14:24:55.093Z,16.68
2023-04-04T14:27:21.666Z,16.77
2023-04-04T14:29:48.216Z,16.80
2023-04-04T14:32:15.841Z,16.79
2023-04-04T14:34:42.429Z,16.06
2023-04-04T14:37:09.017Z,16.37
2023-04-04T14:39:35.553Z,16.47
2023-04-04T14:42:02.160Z,15.49
2023-04-04T14:44:29.120Z,15.68
2023-04-04T14:46:56.215Z,15.76
2023-04-04T14:49:22.784Z,15.57
2023-04-04T14:51:49.540Z,15.63
2023-04-04T14:54:16.211Z,15.92
2023-04-04T14:56:42.795Z,15.63
2023-04-04T14:59:09.387Z,16.06
2023-04-04T15:01:36.033Z,16.01
2023-04-04T15:04:02.739Z,16.20
2023-04-04T15:06:29.376Z,16.33
2023-04-04T15:08:55.977Z,15.94
2023-04-04T15:11:22.695Z,16.26
2023-04-04T15:13:49.330Z,16.44
2023-04-04T15:16:15.893Z,16.12
2023-04-04T15:18:44.543Z,15.98
2023-04-04T15:21:11.125Z,16.22
2023-04-04T15:23:37.726Z,16.08
2023-04-04T15:26:04.272Z,15.74
2023-04-04T15:28:30.864Z,16.52
2023-04-04T15:30:57.404Z,16.69
2023-04-04T15:33:24.001Z,15.86
2023-04-04T15:35:50.579Z,15.73
2023-04-04T15:38:17.157Z,15.55
2023-04-04T15:40:43.778Z,15.66
2023-04-04T15:43:10.364Z,15.43
2023-04-04T15:45:36.981Z,15.30
2023-04-04T15:48:03.593Z,15.01
2023-04-04T15:50:30.187Z,15.23
2023-04-04T15:52:56.752Z,14.90
2023-04-04T15:55:23.312Z,15.03
2023-04-04T15:57:49.907Z,14.96
2023-04-04T16:00:16.459Z,14.60
2023-04-04T16:02:43.365Z,14.73
2023-04-04T16:05:10.233Z,14.81
2023-04-04T16:07:40.987Z,14.97
2023-04-04T16:10:07.537Z,14.88
2023-04-04T16:12:34.317Z,14.31
2023-04-04T16:15:00.975Z,14.26
2023-04-04T16:17:27.615Z,14.27
2023-04-04T16:19:54.195Z,14.34
2023-04-04T16:22:20.737Z,13.98
2023-04-04T16:24:47.366Z,14.00
2023-04-04T16:27:13.982Z,13.87
2023-04-04T16:29:40.552Z,13.19
2023-04-04T16:32:07.244Z,13.53
2023-04-04T16:34:33.878Z,13.42
2023-04-04T16:37:00.488Z,13.79
2023-04-04T16:39:27.387Z,13.76
2023-04-04T16:41:54.028Z,14.02
2023-04-04T16:44:20.635Z,13.76
2023-04-04T16:46:47.281Z,13.38
2023-04-04T16:49:13.866Z,13.32
2023-04-04T16:51:40.475Z,13.29
2023-04-04T16:54:07.365Z,12.71
2023-04-04T16:56:33.940Z,12.64
2023-04-04T16:59:00.833Z,12.65
2023-04-04T17:01:27.530Z,12.75
2023-04-04T17:03:54.180Z,12.17
2023-04-04T17:06:20.788Z,12.43
2023-04-04T17:08:47.331Z,12.39
2023-04-04T17:11:13.911Z,11.99
2023-04-04T17:13:40.438Z,11.92
2023-04-04T17:16:07.025Z,11.76
2023-04-04T17:18:33.590Z,11.62
2023-04-04T17:21:00.151Z,11.69
2023-04-04T17:23:26.739Z,11.56
2023-04-04T17:25:53.274Z,11.76
2023-04-04T17:28:19.903Z,11.71
2023-04-04T17:30:48.769Z,11.61
2023-04-04T17:33:15.329Z,11.75
2023-04-04T17:35:41.929Z,11.54
2023-04-04T17:38:08.484Z,11.27
2023-04-04T17:40:35.058Z,11.18
2023-04-04T17:43:01.661Z,11.06
2023-04-04T17:45:28.197Z,11.12
2023-04-04T17:47:54.831Z,10.81
2023-04-04T17:50:21.405Z,10.53
2023-04-04T17:52:48.027Z,10.78
2023-04-04T17:55:14.562Z,10.68
2023-04-04T17:57:42.195Z,10.60
2023-04-04T18:00:08.788Z,10.47
2023-04-04T18:02:35.521Z,10.47
2023-04-04T18:05:02.084Z,10.28
2023-04-04T18:07:28.685Z,10.60
2023-04-04T18:09:55.254Z,10.57
2023-04-04T18:12:21.981Z,10.41
2023-04-04T18:14:48.539Z,9.83
2023-04-04T18:17:15.105Z,10.08
2023-04-04T18:19:41.989Z,10.38
2023-04-04T18:22:08.531Z,10.47
2023-04-04T18:24:35.112Z,10.37
2023-04-04T18:27:01.685Z,10.43
2023-04-04T18:29:28.363Z,10.61
2023-04-04T18:31:55.135Z,10.35
2023-04-04T18:34:21.817Z,10.04
2023-04-04T18:36:49.481Z,9.61
2023-04-04T18:39:16.255Z,10.16
2023-04-04T18:41:42.847Z,10.05
2023-04-04T18:44:09.530Z,9.87
2023-04-04T18:46:36.139Z,9.98
2023-04-04T18:49:02.724Z,10.06
2023-04-04T18:51:29.281Z,10.20
2023-04-04T18:53:55.872Z,10.14
2023-04-04T18:56:22.416Z,10.07
2023-04-04T18:58:49.028Z,10.12
2023-04-04T19:01:15.753Z,9.87
2023-04-04T19:03:42.444Z,9.93
2023-04-04T19:06:09.098Z,9.86
2023-04-04T19:08:35.726Z,9.72
2023-04-04T19:11:02.373Z,9.70
2023-04-04T19:13:28.970Z,9.37
2023-04-04T19:15:55.556Z,9.38
2023-04-04T19:18:22.141Z,9.41
2023-04-04T19:20:48.698Z,9.43
2023-04-04T19:23:15.269Z,9.44
2023-04-04T19:25:41.994Z,9.42
2023-04-04T19:28:08.834Z,9.28
2023-04-04T19:30:35.410Z,9.24
2023-04-04T19:33:02.112Z,9.21
2023-04-04T19:35:28.820Z,9.01
2023-04-04T19:37:55.448Z,8.90
2023-04-04T19:40:22.023Z,8.84
2023-04-04T19:42:49.195Z,8.72
2023-04-04T19:45:15.745Z,8.63
2023-04-04T19:47:42.449Z,8.60
2023-04-04T19:50:09.185Z,8.57
2023-04-04T19:52:35.765Z,8.53
2023-04-04T19:55:02.377Z,8.42
2023-04-04T19:57:28.991Z,8.49
2023-04-04T19:59:55.564Z,8.32
2023-04-04T20:02:22.154Z,8.18
2023-04-04T20:04:48.779Z,8.20
2023-04-04T20:07:15.385Z,8.37
2023-04-04T20:09:41.940Z,8.04
2023-04-04T20:12:08.507Z,7.69
2023-04-04T20:14:35.041Z,7.78
2023-04-04T20:17:01.836Z,7.67
2023-04-04T20:19:28.406Z,7.80
2023-04-04T20:21:55.083Z,7.75
2023-04-04T20:24:21.880Z,7.63
2023-04-04T20:26:48.752Z,7.63
2023-04-04T20:29:15.303Z,7.55
2023-04-04T20:31:41.878Z,7.49
2023-04-04T20:34:08.491Z,7.60
2023-04-04T20:36:35.030Z,7.55
2023-04-04T20:39:01.637Z,7.26
2023-04-04T20:41:28.268Z,7.32
2023-04-04T20:43:57.246Z,7.31
2023-04-04T20:46:23.809Z,7.15
2023-04-04T20:48:50.407Z,7.40
2023-04-04T20:51:16.950Z,7.31
2023-04-04T20:53:50.795Z,7.12
2023-04-04T20:56:17.371Z,7.20
2023-04-04T20:58:43.918Z,7.02
2023-04-04T21:01:10.546Z,6.91
2023-04-04T21:03:37.130Z,6.90
2023-04-04T21:06:03.687Z,6.96
2023-04-04T21:08:30.260Z,7.08
2023-04-04T21:10:56.919Z,7.08
2023-04-04T21:13:23.509Z,6.91
2023-04-04T21:15:50.128Z,6.73
2023-04-04T21:18:17.913Z,6.75
2023-04-04T21:20:44.489Z,6.73
2023-04-04T21:23:11.124Z,6.41
2023-04-04T21:25:37.806Z,6.41
2023-04-04T21:28:04.355Z,6.64
2023-04-04T21:30:30.943Z,6.30
2023-04-04T21:32:57.573Z,6.35
2023-04-04T21:35:24.410Z,6.35
2023-04-04T21:37:51.037Z,6.46
2023-04-04T21:40:17.574Z,6.16
2023-04-04T21:42:44.208Z,6.09
2023-04-04T21:45:10.817Z,6.17
2023-04-04T21:47:37.445Z,6.29
2023-04-04T21:50:04.046Z,6.15
2023-04-04T21:52:30.595Z,5.97
2023-04-04T21:54:57.168Z,6.18
2023-04-04T21:57:23.689Z,6.12
2023-04-04T21:59:50.287Z,6.33
2023-04-04T22:02:16.839Z,6.11
2023-04-04T22:04:43.486Z,5.84
2023-04-04T22:07:11.278Z,5.67
2023-04-04T22:09:37.829Z,5.98
2023-04-04T22:12:04.410Z,5.57
2023-04-04T22:14:30.957Z,5.79
2023-04-04T22:16:57.496Z,5.61
2023-04-04T22:19:24.125Z,5.63
2023-04-04T22:21:50.935Z,5.59
2023-04-04T22:24:17.591Z,5.67
2023-04-04T22:26:44.220Z,5.79
2023-04-04T22:29:10.780Z,5.67
2023-04-04T22:31:37.580Z,5.56
2023-04-04T22:34:04.356Z,5.40
2023-04-04T22:36:31.362Z,5.53
2023-04-04T22:38:58.414Z,5.23
2023-04-04T22:41:25.208Z,5.38
2023-04-04T22:43:51.740Z,5.50
2023-04-04T22:46:18.324Z,5.50
2023-04-04T22:48:46.963Z,5.28
2023-04-04T22:51:13.832Z,5.39
2023-04-04T22:53:40.386Z,5.42
2023-04-04T22:56:06.992Z,5.45
2023-04-04T22:58:33.565Z,5.41
2023-04-04T23:01:00.206Z,5.32
2023-04-04T23:03:26.778Z,5.34
2023-04-04T23:05:53.343Z,5.36
2023-04-04T23:08:20.045Z,5.18
2023-04-04T23:10:46.745Z,5.23
2023-04-04T23:13:13.273Z,5.34
2023-04-04T23:15:39.878Z,5.41
2023-04-04T23:18:06.792Z,5.53
2023-04-04T23:20:33.353Z,5.18
2023-04-04T23:22:59.990Z,4.85
2023-04-04T23:25:26.555Z,5.04
2023-04-04T23:27:53.127Z,5.27
2023-04-04T23:30:19.718Z,5.36
2023-04-04T23:32:46.292Z,4.94
2023-04-04T23:35:12.918Z,4.70
2023-04-04T23:37:39.894Z,4.92
2023-04-04T23:40:06.486Z,5.04
2023-04-04T23:42:33.035Z,5.07
2023-04-04T23:44:59.593Z,4.94
2023-04-04T23:47:26.321Z,4.90
2023-04-04T23:49:52.886Z,5.03
2023-04-04T23:52:19.433Z,4.91
2023-04-04T23:54:46.011Z,5.02
2023-04-04T23:57:12.608Z,4.89
2023-04-04T23:59:39.175Z,4.95
